Aérodrome :







RETROUVEZ-NOUS SUR...

 
LOGIN :

S'inscrire | Disclaimer

   EN    FR    IT 

 









Légende :    VFR   VFR Marginal   IFR   IFR Intensif   IFR Très Intensif
Visi : 
Plafond : 
>= 8 km
>= 3000ft
5 à 8 km
1000 à 3000 ft
1500m à 5 km
500 à 1000 ft
800 à 1500m
200 à 500 ft
< 800m
< 200 ft
Symboles :   Orages  Brouillard  Fortes neiges  Fortes précipitations  Vent > 20 kt






- Altitude de l'aérodrome : 328 ft


KGFL - Floyd Bennett Memorial

DERNIER METAR :
  • 031553Z AUTO 19012KT 10SM CLR 04/M02 A3007 RMK AO2 SLP189 T00441022

METARs EXPIRÉS :
  • 031453Z AUTO 18011G17KT 10SM CLR 03/M02 A3009 RMK AO2 SLP197 T00331022 50005
  • 031353Z AUTO 19008KT 10SM SCT034 02/M03 A3009 RMK AO2 SLP197 T00171033

TAF KGFL
Valide du 03 à 12h jusqu'au 04 à 12h UTC


031125Z 0312/0412 20005KT P6SM BKN035
FM031400 21008KT P6SM SCT035 SCT250
FM031800 21010G18KT P6SM SCT250
FM032100 21008KT P6SM SCT250
FM040100 20005KT P6SM SCT120 BKN250
FM040900 VRB03KT P6SM BKN120 BKN250
FIR KZBW / Amérique du Nord



MET'MAP, la Météo Aéronautique d'un coup d'oeil ! - Copyright ORBIFLY Décembre 2007 - Disclaimer

ORBIFLY MET'MAP TEAM :

Programmation & Développement : Alexandra Zaïnal
Sur une idée originale de : Baudouin d'Aumeries
Assistance à la programmation : Marc-Olivier Méhu
Soutien technique & logistique : Manuel Goepfert

Contact : metmap@orbifly.com




SOURCES & CREDITS :

   NOAA